sensor_id;sensor_type;location;lat;lon;timestamp;P1;durP1;ratioP1;P2;durP2;ratioP2
38425;SDS011;24210;51.460;6.148;2022-10-31T00:01:40;16.67;;;10.13;;
38425;SDS011;24210;51.460;6.148;2022-10-31T00:04:05;14.70;;;9.27;;
38425;SDS011;24210;51.460;6.148;2022-10-31T00:06:31;12.90;;;9.90;;
38425;SDS011;24210;51.460;6.148;2022-10-31T00:08:58;12.07;;;10.83;;
38425;SDS011;24210;51.460;6.148;2022-10-31T00:11:24;16.88;;;10.93;;
38425;SDS011;24210;51.460;6.148;2022-10-31T00:13:50;25.87;;;12.63;;
38425;SDS011;24210;51.460;6.148;2022-10-31T00:16:15;18.97;;;11.43;;
38425;SDS011;24210;51.460;6.148;2022-10-31T00:18:41;17.97;;;10.93;;
38425;SDS011;24210;51.460;6.148;2022-10-31T00:21:06;14.67;;;9.13;;
38425;SDS011;24210;51.460;6.148;2022-10-31T00:23:31;18.47;;;11.43;;
38425;SDS011;24210;51.460;6.148;2022-10-31T00:26:00;18.33;;;12.40;;
38425;SDS011;24210;51.460;6.148;2022-10-31T00:28:25;18.13;;;11.45;;
38425;SDS011;24210;51.460;6.148;2022-10-31T00:30:51;16.30;;;10.23;;
38425;SDS011;24210;51.460;6.148;2022-10-31T00:33:16;17.00;;;10.80;;
38425;SDS011;24210;51.460;6.148;2022-10-31T00:35:41;14.33;;;9.00;;
38425;SDS011;24210;51.460;6.148;2022-10-31T00:38:06;17.90;;;10.67;;
38425;SDS011;24210;51.460;6.148;2022-10-31T00:40:31;10.73;;;7.37;;
38425;SDS011;24210;51.460;6.148;2022-10-31T00:42:57;11.53;;;8.53;;
38425;SDS011;24210;51.460;6.148;2022-10-31T00:45:22;15.47;;;9.13;;
38425;SDS011;24210;51.460;6.148;2022-10-31T00:47:47;17.93;;;9.17;;
38425;SDS011;24210;51.460;6.148;2022-10-31T00:50:12;12.80;;;8.43;;
38425;SDS011;24210;51.460;6.148;2022-10-31T00:52:38;13.27;;;9.00;;
38425;SDS011;24210;51.460;6.148;2022-10-31T00:55:03;12.43;;;8.30;;
38425;SDS011;24210;51.460;6.148;2022-10-31T00:57:28;13.27;;;9.33;;
38425;SDS011;24210;51.460;6.148;2022-10-31T00:59:53;12.73;;;8.97;;
38425;SDS011;24210;51.460;6.148;2022-10-31T01:02:19;13.77;;;8.53;;
38425;SDS011;24210;51.460;6.148;2022-10-31T01:04:44;11.17;;;8.67;;
38425;SDS011;24210;51.460;6.148;2022-10-31T01:07:09;11.37;;;6.27;;
38425;SDS011;24210;51.460;6.148;2022-10-31T01:09:36;13.77;;;8.82;;
38425;SDS011;24210;51.460;6.148;2022-10-31T01:12:01;9.10;;;6.40;;
38425;SDS011;24210;51.460;6.148;2022-10-31T01:14:26;10.43;;;6.43;;
38425;SDS011;24210;51.460;6.148;2022-10-31T01:16:51;16.30;;;10.03;;
38425;SDS011;24210;51.460;6.148;2022-10-31T01:19:17;12.23;;;8.67;;
38425;SDS011;24210;51.460;6.148;2022-10-31T01:21:42;14.23;;;8.63;;
38425;SDS011;24210;51.460;6.148;2022-10-31T01:24:07;12.03;;;9.60;;
38425;SDS011;24210;51.460;6.148;2022-10-31T01:26:33;16.63;;;10.63;;
38425;SDS011;24210;51.460;6.148;2022-10-31T01:29:03;18.10;;;9.37;;
38425;SDS011;24210;51.460;6.148;2022-10-31T01:31:30;15.18;;;10.13;;
38425;SDS011;24210;51.460;6.148;2022-10-31T01:36:21;18.35;;;11.05;;
38425;SDS011;24210;51.460;6.148;2022-10-31T01:38:47;17.40;;;11.70;;
38425;SDS011;24210;51.460;6.148;2022-10-31T01:41:14;14.70;;;10.05;;
38425;SDS011;24210;51.460;6.148;2022-10-31T01:46:15;14.32;;;11.18;;
38425;SDS011;24210;51.460;6.148;2022-10-31T01:48:42;16.08;;;10.10;;
38425;SDS011;24210;51.460;6.148;2022-10-31T01:51:07;12.90;;;9.63;;
38425;SDS011;24210;51.460;6.148;2022-10-31T01:53:33;17.33;;;10.63;;
38425;SDS011;24210;51.460;6.148;2022-10-31T01:56:00;13.93;;;8.05;;
38425;SDS011;24210;51.460;6.148;2022-10-31T01:58:25;11.67;;;8.20;;
38425;SDS011;24210;51.460;6.148;2022-10-31T02:00:53;11.60;;;7.50;;
38425;SDS011;24210;51.460;6.148;2022-10-31T02:03:20;9.30;;;7.47;;
38425;SDS011;24210;51.460;6.148;2022-10-31T02:05:47;11.30;;;7.32;;
38425;SDS011;24210;51.460;6.148;2022-10-31T02:08:20;12.30;;;7.77;;
38425;SDS011;24210;51.460;6.148;2022-10-31T02:10:46;10.95;;;7.55;;
38425;SDS011;24210;51.460;6.148;2022-10-31T02:13:12;10.27;;;8.40;;
38425;SDS011;24210;51.460;6.148;2022-10-31T02:15:38;11.30;;;8.18;;
38425;SDS011;24210;51.460;6.148;2022-10-31T02:18:04;11.98;;;8.88;;
38425;SDS011;24210;51.460;6.148;2022-10-31T02:20:32;11.97;;;8.80;;
38425;SDS011;24210;51.460;6.148;2022-10-31T02:30:50;17.38;;;9.20;;
38425;SDS011;24210;51.460;6.148;2022-10-31T02:33:21;11.95;;;10.30;;
38425;SDS011;24210;51.460;6.148;2022-10-31T02:36:03;13.68;;;9.45;;
38425;SDS011;24210;51.460;6.148;2022-10-31T02:43:53;17.08;;;9.13;;
38425;SDS011;24210;51.460;6.148;2022-10-31T02:48:58;15.73;;;8.27;;
38425;SDS011;24210;51.460;6.148;2022-10-31T02:51:25;13.98;;;8.43;;
38425;SDS011;24210;51.460;6.148;2022-10-31T02:53:50;9.07;;;7.40;;
38425;SDS011;24210;51.460;6.148;2022-10-31T02:56:17;15.17;;;8.50;;
38425;SDS011;24210;51.460;6.148;2022-10-31T02:58:49;10.05;;;8.05;;
38425;SDS011;24210;51.460;6.148;2022-10-31T03:04:02;14.63;;;8.03;;
38425;SDS011;24210;51.460;6.148;2022-10-31T03:06:40;12.55;;;8.35;;
38425;SDS011;24210;51.460;6.148;2022-10-31T03:11:41;14.48;;;10.07;;
38425;SDS011;24210;51.460;6.148;2022-10-31T03:14:12;15.88;;;9.30;;
38425;SDS011;24210;51.460;6.148;2022-10-31T03:16:45;14.80;;;9.25;;
38425;SDS011;24210;51.460;6.148;2022-10-31T03:19:16;15.30;;;10.30;;
38425;SDS011;24210;51.460;6.148;2022-10-31T03:21:44;11.27;;;8.80;;
38425;SDS011;24210;51.460;6.148;2022-10-31T03:24:10;11.90;;;8.77;;
38425;SDS011;24210;51.460;6.148;2022-10-31T03:26:38;7.32;;;6.55;;
38425;SDS011;24210;51.460;6.148;2022-10-31T03:29:07;8.98;;;6.68;;
38425;SDS011;24210;51.460;6.148;2022-10-31T03:31:35;7.07;;;6.22;;
38425;SDS011;24210;51.460;6.148;2022-10-31T03:34:00;10.40;;;7.25;;
38425;SDS011;24210;51.460;6.148;2022-10-31T03:38:52;10.82;;;8.00;;
38425;SDS011;24210;51.460;6.148;2022-10-31T03:41:19;10.95;;;7.80;;
38425;SDS011;24210;51.460;6.148;2022-10-31T03:43:49;12.00;;;7.25;;
38425;SDS011;24210;51.460;6.148;2022-10-31T03:46:17;9.13;;;6.90;;
38425;SDS011;24210;51.460;6.148;2022-10-31T03:48:43;14.00;;;7.17;;
38425;SDS011;24210;51.460;6.148;2022-10-31T03:51:14;6.97;;;5.80;;
38425;SDS011;24210;51.460;6.148;2022-10-31T03:56:13;7.15;;;6.45;;
38425;SDS011;24210;51.460;6.148;2022-10-31T03:58:45;7.60;;;6.47;;
38425;SDS011;24210;51.460;6.148;2022-10-31T04:01:13;10.93;;;6.93;;
38425;SDS011;24210;51.460;6.148;2022-10-31T04:03:41;10.40;;;6.28;;
38425;SDS011;24210;51.460;6.148;2022-10-31T04:06:08;9.27;;;7.20;;
38425;SDS011;24210;51.460;6.148;2022-10-31T04:08:36;6.93;;;6.22;;
38425;SDS011;24210;51.460;6.148;2022-10-31T04:11:04;7.10;;;5.05;;
38425;SDS011;24210;51.460;6.148;2022-10-31T04:13:31;7.38;;;5.63;;
38425;SDS011;24210;51.460;6.148;2022-10-31T04:15:58;8.60;;;5.55;;
38425;SDS011;24210;51.460;6.148;2022-10-31T04:18:24;10.03;;;6.23;;
38425;SDS011;24210;51.460;6.148;2022-10-31T04:20:49;11.13;;;5.97;;
38425;SDS011;24210;51.460;6.148;2022-10-31T04:23:24;12.98;;;6.60;;
38425;SDS011;24210;51.460;6.148;2022-10-31T04:25:49;11.48;;;7.53;;
38425;SDS011;24210;51.460;6.148;2022-10-31T04:28:15;11.73;;;8.80;;
38425;SDS011;24210;51.460;6.148;2022-10-31T04:30:40;11.13;;;7.67;;
38425;SDS011;24210;51.460;6.148;2022-10-31T04:33:05;8.40;;;6.77;;
38425;SDS011;24210;51.460;6.148;2022-10-31T04:35:30;10.07;;;8.03;;
38425;SDS011;24210;51.460;6.148;2022-10-31T04:37:56;9.90;;;7.60;;
38425;SDS011;24210;51.460;6.148;2022-10-31T04:40:21;13.40;;;7.53;;
38425;SDS011;24210;51.460;6.148;2022-10-31T04:42:46;11.60;;;7.20;;
38425;SDS011;24210;51.460;6.148;2022-10-31T04:45:11;11.40;;;7.07;;
38425;SDS011;24210;51.460;6.148;2022-10-31T04:47:36;9.83;;;6.37;;
38425;SDS011;24210;51.460;6.148;2022-10-31T04:50:02;6.23;;;4.97;;
38425;SDS011;24210;51.460;6.148;2022-10-31T04:52:27;5.00;;;4.50;;
38425;SDS011;24210;51.460;6.148;2022-10-31T04:54:53;9.13;;;4.90;;
38425;SDS011;24210;51.460;6.148;2022-10-31T04:57:18;6.73;;;4.00;;
38425;SDS011;24210;51.460;6.148;2022-10-31T04:59:43;6.90;;;4.90;;
38425;SDS011;24210;51.460;6.148;2022-10-31T05:02:08;7.50;;;5.80;;
38425;SDS011;24210;51.460;6.148;2022-10-31T05:04:34;6.80;;;6.07;;
38425;SDS011;24210;51.460;6.148;2022-10-31T05:06:59;8.13;;;5.67;;
38425;SDS011;24210;51.460;6.148;2022-10-31T05:09:24;6.70;;;6.07;;
38425;SDS011;24210;51.460;6.148;2022-10-31T05:11:49;8.73;;;6.63;;
38425;SDS011;24210;51.460;6.148;2022-10-31T05:14:14;12.13;;;8.67;;
38425;SDS011;24210;51.460;6.148;2022-10-31T05:16:39;10.17;;;7.63;;
38425;SDS011;24210;51.460;6.148;2022-10-31T05:19:05;13.17;;;7.27;;
38425;SDS011;24210;51.460;6.148;2022-10-31T05:21:30;12.37;;;6.67;;
38425;SDS011;24210;51.460;6.148;2022-10-31T05:23:55;8.03;;;6.33;;
38425;SDS011;24210;51.460;6.148;2022-10-31T05:26:20;9.43;;;6.80;;
38425;SDS011;24210;51.460;6.148;2022-10-31T05:28:46;4.43;;;3.97;;
38425;SDS011;24210;51.460;6.148;2022-10-31T05:31:11;5.33;;;4.73;;
38425;SDS011;24210;51.460;6.148;2022-10-31T05:33:36;4.47;;;3.90;;
38425;SDS011;24210;51.460;6.148;2022-10-31T05:36:01;4.63;;;4.23;;
38425;SDS011;24210;51.460;6.148;2022-10-31T05:38:26;6.77;;;4.40;;
38425;SDS011;24210;51.460;6.148;2022-10-31T05:40:54;7.67;;;5.13;;
38425;SDS011;24210;51.460;6.148;2022-10-31T05:43:19;11.05;;;6.70;;
38425;SDS011;24210;51.460;6.148;2022-10-31T05:45:44;11.20;;;7.33;;
38425;SDS011;24210;51.460;6.148;2022-10-31T05:48:10;15.87;;;9.63;;
38425;SDS011;24210;51.460;6.148;2022-10-31T05:50:35;8.70;;;6.70;;
38425;SDS011;24210;51.460;6.148;2022-10-31T05:53:01;9.80;;;5.80;;
38425;SDS011;24210;51.460;6.148;2022-10-31T05:55:27;10.38;;;6.15;;
38425;SDS011;24210;51.460;6.148;2022-10-31T05:57:53;8.73;;;3.07;;
38425;SDS011;24210;51.460;6.148;2022-10-31T06:00:18;3.33;;;2.57;;
38425;SDS011;24210;51.460;6.148;2022-10-31T06:02:44;3.27;;;3.07;;
38425;SDS011;24210;51.460;6.148;2022-10-31T06:05:09;2.27;;;2.13;;
38425;SDS011;24210;51.460;6.148;2022-10-31T06:07:34;3.27;;;2.97;;
38425;SDS011;24210;51.460;6.148;2022-10-31T06:10:00;7.73;;;4.17;;
38425;SDS011;24210;51.460;6.148;2022-10-31T06:12:26;6.20;;;4.77;;
38425;SDS011;24210;51.460;6.148;2022-10-31T06:14:51;9.83;;;6.57;;
38425;SDS011;24210;51.460;6.148;2022-10-31T06:17:16;8.23;;;6.10;;
38425;SDS011;24210;51.460;6.148;2022-10-31T06:19:41;8.67;;;5.67;;
38425;SDS011;24210;51.460;6.148;2022-10-31T06:22:06;8.07;;;6.13;;
38425;SDS011;24210;51.460;6.148;2022-10-31T06:24:32;4.53;;;4.10;;
38425;SDS011;24210;51.460;6.148;2022-10-31T06:26:57;4.50;;;3.50;;
38425;SDS011;24210;51.460;6.148;2022-10-31T06:29:22;6.50;;;3.77;;
38425;SDS011;24210;51.460;6.148;2022-10-31T06:31:47;5.70;;;4.17;;
38425;SDS011;24210;51.460;6.148;2022-10-31T06:34:15;4.90;;;4.43;;
38425;SDS011;24210;51.460;6.148;2022-10-31T06:36:40;7.97;;;4.50;;
38425;SDS011;24210;51.460;6.148;2022-10-31T06:39:06;8.30;;;4.93;;
38425;SDS011;24210;51.460;6.148;2022-10-31T06:41:31;9.50;;;5.27;;
38425;SDS011;24210;51.460;6.148;2022-10-31T06:43:56;7.50;;;4.67;;
38425;SDS011;24210;51.460;6.148;2022-10-31T06:46:22;8.90;;;5.00;;
38425;SDS011;24210;51.460;6.148;2022-10-31T06:48:48;8.23;;;5.37;;
38425;SDS011;24210;51.460;6.148;2022-10-31T06:51:13;5.10;;;4.40;;
38425;SDS011;24210;51.460;6.148;2022-10-31T06:53:38;9.40;;;5.13;;
38425;SDS011;24210;51.460;6.148;2022-10-31T06:56:03;5.03;;;4.10;;
38425;SDS011;24210;51.460;6.148;2022-10-31T06:58:29;8.67;;;5.57;;
38425;SDS011;24210;51.460;6.148;2022-10-31T07:00:54;9.07;;;5.30;;
38425;SDS011;24210;51.460;6.148;2022-10-31T07:03:19;10.13;;;6.73;;
38425;SDS011;24210;51.460;6.148;2022-10-31T07:05:45;6.47;;;4.60;;
38425;SDS011;24210;51.460;6.148;2022-10-31T07:08:11;8.63;;;5.50;;
38425;SDS011;24210;51.460;6.148;2022-10-31T07:10:37;7.63;;;5.82;;
38425;SDS011;24210;51.460;6.148;2022-10-31T07:13:04;6.40;;;5.40;;
38425;SDS011;24210;51.460;6.148;2022-10-31T07:15:32;9.45;;;6.30;;
38425;SDS011;24210;51.460;6.148;2022-10-31T07:18:04;8.93;;;5.55;;
38425;SDS011;24210;51.460;6.148;2022-10-31T07:20:30;10.30;;;5.05;;
38425;SDS011;24210;51.460;6.148;2022-10-31T07:22:56;7.80;;;5.13;;
38425;SDS011;24210;51.460;6.148;2022-10-31T07:25:21;9.00;;;5.77;;
38425;SDS011;24210;51.460;6.148;2022-10-31T07:27:46;9.40;;;5.87;;
38425;SDS011;24210;51.460;6.148;2022-10-31T07:30:12;9.40;;;6.80;;
38425;SDS011;24210;51.460;6.148;2022-10-31T07:32:41;9.77;;;6.05;;
38425;SDS011;24210;51.460;6.148;2022-10-31T07:35:07;11.73;;;7.18;;
38425;SDS011;24210;51.460;6.148;2022-10-31T07:37:33;8.13;;;5.95;;
38425;SDS011;24210;51.460;6.148;2022-10-31T07:39:58;9.10;;;7.43;;
38425;SDS011;24210;51.460;6.148;2022-10-31T07:42:23;12.17;;;8.17;;
38425;SDS011;24210;51.460;6.148;2022-10-31T07:44:48;12.67;;;6.63;;
38425;SDS011;24210;51.460;6.148;2022-10-31T07:47:14;9.23;;;5.80;;
38425;SDS011;24210;51.460;6.148;2022-10-31T07:49:39;14.40;;;8.40;;
38425;SDS011;24210;51.460;6.148;2022-10-31T07:52:04;10.13;;;7.10;;
38425;SDS011;24210;51.460;6.148;2022-10-31T07:54:29;11.07;;;8.20;;
38425;SDS011;24210;51.460;6.148;2022-10-31T07:56:55;12.17;;;7.67;;
38425;SDS011;24210;51.460;6.148;2022-10-31T07:59:20;11.70;;;9.60;;
38425;SDS011;24210;51.460;6.148;2022-10-31T08:01:45;12.70;;;9.93;;
38425;SDS011;24210;51.460;6.148;2022-10-31T08:04:10;15.23;;;10.07;;
38425;SDS011;24210;51.460;6.148;2022-10-31T08:06:35;14.50;;;9.87;;
38425;SDS011;24210;51.460;6.148;2022-10-31T08:09:01;11.83;;;8.17;;
38425;SDS011;24210;51.460;6.148;2022-10-31T08:11:26;14.30;;;6.87;;
38425;SDS011;24210;51.460;6.148;2022-10-31T08:13:51;13.40;;;6.67;;
38425;SDS011;24210;51.460;6.148;2022-10-31T08:16:16;10.33;;;6.83;;
38425;SDS011;24210;51.460;6.148;2022-10-31T08:18:41;15.00;;;8.03;;
38425;SDS011;24210;51.460;6.148;2022-10-31T08:21:07;14.27;;;9.07;;
38425;SDS011;24210;51.460;6.148;2022-10-31T08:23:32;16.17;;;10.70;;
38425;SDS011;24210;51.460;6.148;2022-10-31T08:25:57;15.30;;;9.50;;
38425;SDS011;24210;51.460;6.148;2022-10-31T08:28:22;14.70;;;10.37;;
38425;SDS011;24210;51.460;6.148;2022-10-31T08:30:47;14.50;;;10.87;;
38425;SDS011;24210;51.460;6.148;2022-10-31T08:33:14;14.97;;;10.50;;
38425;SDS011;24210;51.460;6.148;2022-10-31T08:35:39;18.65;;;12.18;;
38425;SDS011;24210;51.460;6.148;2022-10-31T08:38:04;16.87;;;11.83;;
38425;SDS011;24210;51.460;6.148;2022-10-31T08:40:31;13.13;;;10.17;;
38425;SDS011;24210;51.460;6.148;2022-10-31T08:42:57;20.98;;;11.60;;
38425;SDS011;24210;51.460;6.148;2022-10-31T08:45:22;14.68;;;11.73;;
38425;SDS011;24210;51.460;6.148;2022-10-31T08:47:47;15.33;;;12.50;;
38425;SDS011;24210;51.460;6.148;2022-10-31T08:50:13;22.53;;;13.63;;
38425;SDS011;24210;51.460;6.148;2022-10-31T08:52:38;22.57;;;13.53;;
38425;SDS011;24210;51.460;6.148;2022-10-31T08:55:03;23.50;;;12.97;;
38425;SDS011;24210;51.460;6.148;2022-10-31T08:57:28;22.67;;;13.30;;
38425;SDS011;24210;51.460;6.148;2022-10-31T08:59:54;21.47;;;14.40;;
38425;SDS011;24210;51.460;6.148;2022-10-31T09:02:19;21.10;;;13.10;;
38425;SDS011;24210;51.460;6.148;2022-10-31T09:04:44;23.90;;;13.73;;
38425;SDS011;24210;51.460;6.148;2022-10-31T09:07:09;23.87;;;13.20;;
38425;SDS011;24210;51.460;6.148;2022-10-31T09:09:35;21.23;;;13.20;;
38425;SDS011;24210;51.460;6.148;2022-10-31T09:12:00;18.40;;;12.37;;
38425;SDS011;24210;51.460;6.148;2022-10-31T09:14:25;17.73;;;13.40;;
38425;SDS011;24210;51.460;6.148;2022-10-31T09:16:51;19.97;;;12.60;;
38425;SDS011;24210;51.460;6.148;2022-10-31T09:19:16;16.53;;;13.20;;
38425;SDS011;24210;51.460;6.148;2022-10-31T09:21:41;23.40;;;12.93;;
38425;SDS011;24210;51.460;6.148;2022-10-31T09:24:06;19.23;;;12.77;;
38425;SDS011;24210;51.460;6.148;2022-10-31T09:26:33;26.30;;;14.33;;
38425;SDS011;24210;51.460;6.148;2022-10-31T09:28:58;24.85;;;14.02;;
38425;SDS011;24210;51.460;6.148;2022-10-31T09:31:23;18.13;;;12.53;;
38425;SDS011;24210;51.460;6.148;2022-10-31T09:33:48;23.60;;;15.30;;
38425;SDS011;24210;51.460;6.148;2022-10-31T09:36:13;23.30;;;13.87;;
38425;SDS011;24210;51.460;6.148;2022-10-31T09:38:39;23.73;;;14.57;;
38425;SDS011;24210;51.460;6.148;2022-10-31T09:41:27;24.80;;;13.40;;
38425;SDS011;24210;51.460;6.148;2022-10-31T09:46:18;19.13;;;13.27;;
38425;SDS011;24210;51.460;6.148;2022-10-31T09:51:32;22.27;;;13.82;;
38425;SDS011;24210;51.460;6.148;2022-10-31T09:56:38;16.70;;;12.50;;
38425;SDS011;24210;51.460;6.148;2022-10-31T09:59:05;17.63;;;10.70;;
38425;SDS011;24210;51.460;6.148;2022-10-31T10:01:33;20.88;;;12.23;;
38425;SDS011;24210;51.460;6.148;2022-10-31T10:04:02;18.23;;;12.63;;
38425;SDS011;24210;51.460;6.148;2022-10-31T10:06:28;18.45;;;12.32;;
38425;SDS011;24210;51.460;6.148;2022-10-31T10:08:55;20.35;;;12.15;;
38425;SDS011;24210;51.460;6.148;2022-10-31T10:19:47;14.85;;;10.93;;
38425;SDS011;24210;51.460;6.148;2022-10-31T10:25:02;23.50;;;12.05;;
38425;SDS011;24210;51.460;6.148;2022-10-31T10:29:58;18.83;;;11.60;;
38425;SDS011;24210;51.460;6.148;2022-10-31T10:32:30;22.23;;;13.10;;
38425;SDS011;24210;51.460;6.148;2022-10-31T10:35:20;15.77;;;10.98;;
38425;SDS011;24210;51.460;6.148;2022-10-31T10:37:42;17.48;;;12.25;;
38425;SDS011;24210;51.460;6.148;2022-10-31T10:42:33;30.98;;;14.32;;
38425;SDS011;24210;51.460;6.148;2022-10-31T10:45:19;19.77;;;13.27;;
38425;SDS011;24210;51.460;6.148;2022-10-31T10:48:47;22.85;;;13.07;;
38425;SDS011;24210;51.460;6.148;2022-10-31T10:50:51;27.05;;;14.60;;
38425;SDS011;24210;51.460;6.148;2022-10-31T10:55:59;15.48;;;10.38;;
38425;SDS011;24210;51.460;6.148;2022-10-31T10:58:28;19.95;;;11.85;;
38425;SDS011;24210;51.460;6.148;2022-10-31T11:00:54;21.63;;;13.17;;
38425;SDS011;24210;51.460;6.148;2022-10-31T11:03:19;20.83;;;13.23;;
38425;SDS011;24210;51.460;6.148;2022-10-31T11:05:50;17.97;;;12.83;;
38425;SDS011;24210;51.460;6.148;2022-10-31T11:11:01;17.05;;;12.15;;
38425;SDS011;24210;51.460;6.148;2022-10-31T11:13:26;23.48;;;12.55;;
38425;SDS011;24210;51.460;6.148;2022-10-31T11:16:05;21.60;;;12.97;;
38425;SDS011;24210;51.460;6.148;2022-10-31T11:18:32;20.70;;;14.35;;
38425;SDS011;24210;51.460;6.148;2022-10-31T11:20:58;21.13;;;13.25;;
38425;SDS011;24210;51.460;6.148;2022-10-31T11:25:54;22.10;;;11.73;;
38425;SDS011;24210;51.460;6.148;2022-10-31T11:28:19;19.50;;;13.05;;
38425;SDS011;24210;51.460;6.148;2022-10-31T11:30:46;18.53;;;12.57;;
38425;SDS011;24210;51.460;6.148;2022-10-31T11:33:33;19.40;;;12.48;;
38425;SDS011;24210;51.460;6.148;2022-10-31T11:35:57;21.17;;;12.50;;
38425;SDS011;24210;51.460;6.148;2022-10-31T11:38:24;21.45;;;13.02;;
38425;SDS011;24210;51.460;6.148;2022-10-31T11:40:54;19.75;;;12.25;;
38425;SDS011;24210;51.460;6.148;2022-10-31T11:43:20;21.05;;;12.60;;
38425;SDS011;24210;51.460;6.148;2022-10-31T11:45:46;21.77;;;12.03;;
38425;SDS011;24210;51.460;6.148;2022-10-31T11:48:18;21.37;;;11.87;;
38425;SDS011;24210;51.460;6.148;2022-10-31T11:50:49;19.98;;;12.32;;
38425;SDS011;24210;51.460;6.148;2022-10-31T11:53:19;19.77;;;10.88;;
38425;SDS011;24210;51.460;6.148;2022-10-31T11:55:45;19.55;;;12.35;;
38425;SDS011;24210;51.460;6.148;2022-10-31T11:58:21;26.83;;;13.93;;
38425;SDS011;24210;51.460;6.148;2022-10-31T12:00:51;19.05;;;13.25;;
38425;SDS011;24210;51.460;6.148;2022-10-31T12:05:42;17.07;;;12.27;;
38425;SDS011;24210;51.460;6.148;2022-10-31T12:08:09;22.15;;;14.23;;
38425;SDS011;24210;51.460;6.148;2022-10-31T12:13:05;24.90;;;15.00;;
38425;SDS011;24210;51.460;6.148;2022-10-31T12:15:34;25.55;;;14.75;;
38425;SDS011;24210;51.460;6.148;2022-10-31T12:20:52;28.48;;;16.13;;
38425;SDS011;24210;51.460;6.148;2022-10-31T12:23:23;25.08;;;16.00;;
38425;SDS011;24210;51.460;6.148;2022-10-31T12:25:56;25.15;;;12.95;;
38425;SDS011;24210;51.460;6.148;2022-10-31T12:41:17;17.43;;;12.43;;
38425;SDS011;24210;51.460;6.148;2022-10-31T12:43:46;27.67;;;14.55;;
38425;SDS011;24210;51.460;6.148;2022-10-31T12:46:18;26.77;;;15.43;;
38425;SDS011;24210;51.460;6.148;2022-10-31T12:48:50;27.23;;;16.48;;
38425;SDS011;24210;51.460;6.148;2022-10-31T12:59:42;24.27;;;14.57;;
38425;SDS011;24210;51.460;6.148;2022-10-31T13:01:49;24.30;;;14.48;;
38425;SDS011;24210;51.460;6.148;2022-10-31T13:04:35;24.50;;;14.63;;
38425;SDS011;24210;51.460;6.148;2022-10-31T13:07:03;28.00;;;15.40;;
38425;SDS011;24210;51.460;6.148;2022-10-31T13:09:34;30.80;;;14.93;;
38425;SDS011;24210;51.460;6.148;2022-10-31T13:12:19;26.60;;;15.73;;
38425;SDS011;24210;51.460;6.148;2022-10-31T13:14:46;23.13;;;12.68;;
38425;SDS011;24210;51.460;6.148;2022-10-31T13:17:20;24.38;;;13.95;;
38425;SDS011;24210;51.460;6.148;2022-10-31T13:19:46;19.63;;;14.00;;
38425;SDS011;24210;51.460;6.148;2022-10-31T13:22:13;29.87;;;12.83;;
38425;SDS011;24210;51.460;6.148;2022-10-31T13:24:51;23.05;;;12.13;;
38425;SDS011;24210;51.460;6.148;2022-10-31T13:29:56;13.60;;;9.50;;
38425;SDS011;24210;51.460;6.148;2022-10-31T13:32:24;26.23;;;10.85;;
38425;SDS011;24210;51.460;6.148;2022-10-31T13:34:51;17.75;;;10.68;;
38425;SDS011;24210;51.460;6.148;2022-10-31T13:44:36;16.20;;;8.73;;
38425;SDS011;24210;51.460;6.148;2022-10-31T13:47:26;17.70;;;8.40;;
38425;SDS011;24210;51.460;6.148;2022-10-31T13:50:03;16.70;;;9.43;;
38425;SDS011;24210;51.460;6.148;2022-10-31T13:52:29;14.95;;;8.52;;
38425;SDS011;24210;51.460;6.148;2022-10-31T13:54:54;14.20;;;8.30;;
38425;SDS011;24210;51.460;6.148;2022-10-31T13:59:54;19.33;;;6.82;;
38425;SDS011;24210;51.460;6.148;2022-10-31T14:02:43;18.85;;;8.45;;
38425;SDS011;24210;51.460;6.148;2022-10-31T14:07:49;16.83;;;7.53;;
38425;SDS011;24210;51.460;6.148;2022-10-31T14:12:52;16.85;;;8.00;;
38425;SDS011;24210;51.460;6.148;2022-10-31T14:15:22;19.45;;;9.25;;
38425;SDS011;24210;51.460;6.148;2022-10-31T14:17:55;19.98;;;8.18;;
38425;SDS011;24210;51.460;6.148;2022-10-31T14:20:23;17.50;;;7.38;;
38425;SDS011;24210;51.460;6.148;2022-10-31T14:22:48;19.48;;;8.52;;
38425;SDS011;24210;51.460;6.148;2022-10-31T14:28:22;12.50;;;6.93;;
38425;SDS011;24210;51.460;6.148;2022-10-31T14:30:56;16.05;;;7.15;;
38425;SDS011;24210;51.460;6.148;2022-10-31T14:33:22;19.38;;;7.68;;
38425;SDS011;24210;51.460;6.148;2022-10-31T14:35:56;12.85;;;6.65;;
38425;SDS011;24210;51.460;6.148;2022-10-31T14:38:35;16.13;;;7.15;;
38425;SDS011;24210;51.460;6.148;2022-10-31T14:46:18;12.38;;;7.72;;
38425;SDS011;24210;51.460;6.148;2022-10-31T14:49:01;17.65;;;7.57;;
38425;SDS011;24210;51.460;6.148;2022-10-31T14:51:36;17.92;;;7.43;;
38425;SDS011;24210;51.460;6.148;2022-10-31T14:54:02;9.55;;;5.70;;
38425;SDS011;24210;51.460;6.148;2022-10-31T14:56:30;12.38;;;5.05;;
38425;SDS011;24210;51.460;6.148;2022-10-31T14:58:57;9.82;;;4.90;;
38425;SDS011;24210;51.460;6.148;2022-10-31T15:01:24;13.48;;;5.80;;
38425;SDS011;24210;51.460;6.148;2022-10-31T15:03:49;13.23;;;5.43;;
38425;SDS011;24210;51.460;6.148;2022-10-31T15:06:16;15.83;;;7.00;;
38425;SDS011;24210;51.460;6.148;2022-10-31T15:08:49;14.88;;;5.53;;
38425;SDS011;24210;51.460;6.148;2022-10-31T15:11:16;11.73;;;5.90;;
38425;SDS011;24210;51.460;6.148;2022-10-31T15:16:07;8.63;;;5.60;;
38425;SDS011;24210;51.460;6.148;2022-10-31T15:18:33;16.35;;;5.53;;
38425;SDS011;24210;51.460;6.148;2022-10-31T15:20:59;15.47;;;7.17;;
38425;SDS011;24210;51.460;6.148;2022-10-31T15:23:25;9.47;;;5.80;;
38425;SDS011;24210;51.460;6.148;2022-10-31T15:28:23;12.13;;;5.32;;
38425;SDS011;24210;51.460;6.148;2022-10-31T15:30:55;12.85;;;6.13;;
38425;SDS011;24210;51.460;6.148;2022-10-31T15:33:24;19.27;;;5.43;;
38425;SDS011;24210;51.460;6.148;2022-10-31T15:36:00;14.63;;;5.05;;
38425;SDS011;24210;51.460;6.148;2022-10-31T15:38:26;13.45;;;5.85;;
38425;SDS011;24210;51.460;6.148;2022-10-31T15:40:52;11.05;;;5.00;;
38425;SDS011;24210;51.460;6.148;2022-10-31T15:43:18;15.68;;;5.25;;
38425;SDS011;24210;51.460;6.148;2022-10-31T15:45:43;10.97;;;5.07;;
38425;SDS011;24210;51.460;6.148;2022-10-31T15:48:15;13.90;;;6.60;;
38425;SDS011;24210;51.460;6.148;2022-10-31T15:50:45;13.27;;;5.75;;
38425;SDS011;24210;51.460;6.148;2022-10-31T15:53:17;13.10;;;6.68;;
38425;SDS011;24210;51.460;6.148;2022-10-31T15:55:52;11.07;;;4.82;;
38425;SDS011;24210;51.460;6.148;2022-10-31T15:58:18;14.38;;;4.95;;
38425;SDS011;24210;51.460;6.148;2022-10-31T16:00:43;16.73;;;6.77;;
38425;SDS011;24210;51.460;6.148;2022-10-31T16:05:38;12.45;;;4.93;;
38425;SDS011;24210;51.460;6.148;2022-10-31T16:08:04;9.40;;;4.78;;
38425;SDS011;24210;51.460;6.148;2022-10-31T16:10:46;10.35;;;4.90;;
38425;SDS011;24210;51.460;6.148;2022-10-31T16:13:11;13.87;;;4.60;;
38425;SDS011;24210;51.460;6.148;2022-10-31T16:15:37;9.00;;;5.00;;
38425;SDS011;24210;51.460;6.148;2022-10-31T16:18:02;7.57;;;4.93;;
38425;SDS011;24210;51.460;6.148;2022-10-31T16:20:28;10.30;;;5.10;;
38425;SDS011;24210;51.460;6.148;2022-10-31T16:22:54;13.98;;;6.28;;
38425;SDS011;24210;51.460;6.148;2022-10-31T16:27:49;13.10;;;4.47;;
38425;SDS011;24210;51.460;6.148;2022-10-31T16:35:25;13.60;;;4.77;;
38425;SDS011;24210;51.460;6.148;2022-10-31T16:37:51;11.68;;;4.82;;
38425;SDS011;24210;51.460;6.148;2022-10-31T16:40:17;11.33;;;5.30;;
38425;SDS011;24210;51.460;6.148;2022-10-31T16:42:42;7.37;;;3.93;;
38425;SDS011;24210;51.460;6.148;2022-10-31T16:45:13;14.00;;;5.20;;
38425;SDS011;24210;51.460;6.148;2022-10-31T16:47:39;11.32;;;4.40;;